Weather observations for the past three days for
Lawrence, Lawrence Municipal Airport
Imperial (Metric)
Date Time (cdt) Wind (mph) Vis. (mi.) Weather Sky Cond. Temperature (ºF) Relative Humidity Wind Chill (°F) Heat Index (°F) Pressure Precipitation (in)
Air Dwpt 6 hour altimeter (in) sea level (mb) 1 hr 3 hr 6 hr
Max. Min.
05 12:52 S 6 10.00 Fair CLR 98.1 68 98.1 68 38% 103 29.96 1013.6
05 11:52 S 3 10.00 Fair CLR 95 71.1 46% 102 29.98 1014.2
05 10:52 S 5 10.00 Fair CLR 91 70 50% 97 29.98 1014.1
05 09:52 E 3 10.00 Fair CLR 84.9 70 61% 89 29.97 1013.8
05 08:52 Calm 9.00 Fair CLR 79 70 74% 82 29.96 1013.8
05 07:52 Calm 9.00 Fair CLR 71.1 69.1 94% 29.95 1013.3
05 06:52 E 3 9.00 Fair CLR 69.1 66.9 72 66.9 93% 29.93 1012.5
05 05:52 Calm 10.00 Fair CLR 66.9 66 97% 29.92 1012.2
05 04:52 Calm 8.00 Fair CLR 66.9 66 97% 29.92 1012.1
05 03:52 Calm 9.00 Fair CLR 68 68 100% 29.92 1012.2
05 02:52 Calm 7.00 Fair CLR 68 68 100% 29.92 1012.1
05 01:52 Calm 10.00 Fair CLR 70 68 93% 29.92 1012.3
05 00:52 Calm 10.00 Fair CLR 71.1 70 93.9 71.1 96% 29.93 1012.4
04 23:52 Calm 9.00 Fair CLR 73 70 90% 29.92 1012.4
04 22:52 E 3 9.00 Fair CLR 72 70 94% 29.92 1012.1
04 21:52 E 3 10.00 Fair CLR 75.9 72 88% 76 29.91 1011.9
04 20:52 E 3 9.00 Fair CLR 78.1 72 82% 80 29.89 1011.3
04 19:52 E 3 10.00 Fair CLR 82 73.9 77% 88 29.87 1010.8
04 18:52 S 6 10.00 Fair CLR 93.9 68 99 93.9 43% 98 29.88 1010.8
04 17:52 S 9 10.00 Fair CLR 97 66.9 37% 101 29.88 1010.8
04 16:52 S 12 G 20 10.00 Fair CLR 98.1 68 38% 103 29.89 1011.0
04 15:52 S 12 10.00 Fair CLR 98.1 69.1 39% 104 29.89 1011.3
04 14:52 SW 9 G 20 10.00 Fair CLR 98.1 68 38% 103 29.91 1011.8
04 13:52 S 9 10.00 Fair CLR 96.1 68 40% 101 29.93 1012.3
04 12:52 S 9 G 21 10.00 Fair CLR 93.9 66.9 95 70 41% 98 29.94 1012.7
04 10:52 S 9 10.00 Fair CLR 90 70 52% 95 29.96 1013.4
04 09:52 S 8 10.00 Fair CLR 86 70 59% 91 29.96 1013.5
04 08:52 Vrbl 5 10.00 Fair CLR 80.1 70 71% 83 29.96 1013.7
04 07:52 E 5 9.00 Fair CLR 75 70 84% 75 29.95 1013.2
04 06:52 SE 5 10.00 Fair CLR 71.1 68 78.1 70 90% 29.93 1012.4
04 05:52 SE 7 10.00 Fair CLR 71.1 68 90% 29.92 1012.1
04 04:52 SE 5 10.00 Fair CLR 72 68 87% 29.91 1011.7
04 03:52 Calm 10.00 Fair CLR 72 69.1 91% 29.89 1011.1
04 02:52 Calm 10.00 Fair CLR 72 69.1 91% 29.89 1011.1
04 01:52 SW 3 10.00 Fair CLR 75 69.1 82% 75 29.89 1011.1
04 00:52 Calm 10.00 Fair CLR 75.9 68 93.9 75 77% 77 29.89 1011.1
03 23:52 SE 5 10.00 Fair CLR 75.9 69.1 79% 77 29.88 1010.8
03 22:52 SE 5 10.00 Fair CLR 77 69.1 77% 79 29.88 1010.7
03 21:52 SE 5 10.00 Fair CLR 78.1 70 76% 80 29.87 1010.6
03 20:52 E 8 10.00 Fair CLR 82 69.1 65% 85 29.85 1010.0
03 19:52 S 5 10.00 Fair CLR 84 71.1 65% 89 29.83 1009.2
03 18:52 S 7 10.00 Fair CLR 95 66.9 98.1 95 40% 99 29.83 1009.1
03 17:52 S 9 10.00 Fair CLR 97 64.9 35% 100 29.83 1008.9
03 16:52 S 9 10.00 Fair CLR 98.1 66.9 36% 103 29.83 1009.2
03 15:52 S 12 G 21 10.00 Fair CLR 98.1 66.9 36% 103 29.85 1009.7
03 14:52 S 14 G 22 10.00 Fair CLR 97 68 39% 102 29.87 1010.4
03 13:52 S 17 G 23 10.00 Fair CLR 97 68 39% 102 29.88 1010.9
03 12:52 S 14 G 22 10.00 Fair CLR 95 68 95 75.9 41% 100 29.9 1011.5
03 11:52 S 15 G 21 10.00 Fair CLR 93 68 44% 97 29.92 1012.1
03 10:52 SW 12 G 21 10.00 Fair CLR 91 69.1 49% 96 29.93 1012.3
03 09:52 S 10 G 22 10.00 Fair CLR 87.1 69.1 55% 91 29.93 1012.5
03 08:52 S 15 10.00 Fair CLR 82.9 69.1 63% 87 29.93 1012.6
03 07:52 S 7 10.00 Fair CLR 79 66.9 67% 81 29.94 1012.7
03 06:52 S 6 10.00 Fair CLR 75.9 66.9 77 70 74% 77 29.92 1012.0
03 05:52 S 5 10.00 Fair CLR 77 66 69% 79 29.91 1011.7
03 04:52 Vrbl 3 10.00 Fair CLR 72 66 82% 29.9 1011.6
03 03:52 E 6 10.00 Fair CLR 72 66 82% 29.9 1011.5
03 02:52 E 7 10.00 Fair CLR 70 66 87% 29.9 1011.3
03 01:52 E 6 10.00 Fair CLR 73 66.9 81% 29.9 1011.4
03 00:52 SE 5 10.00 Fair CLR 75 66.9 95 73.9 76% 76 29.9 1011.4
02 23:52 E 7 10.00 Fair CLR 77 66.9 71% 79 29.9 1011.4
02 22:52 E 6 10.00 Fair CLR 75.9 66.9 74% 77 29.9 1011.5
02 21:52 SE 5 10.00 Fair CLR 77 68 74% 79 29.9 1011.5
02 20:52 SE 5 10.00 Fair CLR 79 69.1 72% 82 29.88 1010.9
02 19:52 S 5 7.00 Fair CLR 84.9 69.1 59% 89 29.86 1010.3
02 18:52 S 7 10.00 Fair CLR 95 64.9 100.9 95 37% 98 29.87 1010.4
02 17:52 S 12 10.00 Fair CLR 98.1 64 33% 101 29.87 1010.4
02 16:52 SW 9 10.00 Fair CLR 99 64.9 33% 102 29.88 1010.6
02 15:52 S 12 G 23 10.00 Partly Cloudy SCT085 100 64.9 32% 103 29.9 1011.3
02 14:52 S 13 G 28 10.00 Fair CLR 100 66.9 34% 105 29.91 1011.9
02 13:52 S 14 10.00 Fair CLR 99 66 34% 103 29.94 1012.7
Date Time (cdt) Wind (mph) Vis. (mi.) Weather Sky Cond. Air Dwpt Max. Min. Relative Humidity Wind Chill (°F) Heat Index (°F) altimeter (in) sea level (mb) 1 hr 3 hr 6 hr
6 hour
Temperature (ºF) Pressure Precipitation (in)